KOWD/OWD METAR and TAF weather

Enter ICAO airport designator
Station Type Date Time Source
KOWD METAR 2019/10/15 20:53 UTC NOAA

KOWD 152053Z 29004KT 10SM CLR 17/01 A3006 RMK AO2 SLPNO T01670011 56014


Station Type Date Time Source
KOWD Decoded METAR 2019/10/15 20:53 UTC NOAA

NORWOOD MEMORIAL AIRPORT, MA, United States (KOWD) 42-11N 71-10W 19M
Oct 15, 2019 - 04:53 PM EDT / 2019.10.15 2053 UTC
Wind: from the WNW (290 degrees) at 5 MPH (4 KT):0
Visibility: 10 mile(s):0
Sky conditions: clear
Temperature: 62.1 F (16.7 C)
Dew Point: 34.0 F (1.1 C)
Relative Humidity: 34%
Pressure (altimeter): 30.06 in. Hg (1017 hPa)
Pressure tendency: 0.04 inches (1.4 hPa) lower than three hours ago
ob: KOWD 152053Z 29004KT 10SM CLR 17/01 A3006 RMK AO2 SLPNO T01670011 56014
cycle: 21

Station Type Date Time Source
KOWD TAF UTC NOAA

Error!

Example: see airport list